createdAt,value
2022-08-15T00:01:12.365Z,17.90
2022-08-15T00:04:00.940Z,18.20
2022-08-15T00:06:39.859Z,18.80
2022-08-15T00:09:15.400Z,19.50
2022-08-15T00:11:47.528Z,19.90
2022-08-15T00:14:30.687Z,20.00
2022-08-15T00:17:00.689Z,18.60
2022-08-15T00:19:32.570Z,18.30
2022-08-15T00:22:03.286Z,17.50
2022-08-15T00:24:34.746Z,17.60
2022-08-15T00:27:10.173Z,17.60
2022-08-15T00:29:40.407Z,17.80
2022-08-15T00:33:03.133Z,17.90
2022-08-15T00:34:59.969Z,17.90
2022-08-15T00:37:28.252Z,17.60
2022-08-15T00:39:57.673Z,17.60
2022-08-15T00:42:29.577Z,17.30
2022-08-15T00:45:12.949Z,17.60
2022-08-15T00:47:43.647Z,17.60
2022-08-15T00:50:33.520Z,17.60
2022-08-15T00:53:07.355Z,17.80
2022-08-15T00:55:37.424Z,17.80
2022-08-15T00:58:07.233Z,18.10
2022-08-15T01:00:55.390Z,18.30
2022-08-15T01:03:26.506Z,18.40
2022-08-15T01:05:58.452Z,18.30
2022-08-15T01:08:36.391Z,18.60
2022-08-15T01:11:14.081Z,19.00
2022-08-15T01:14:04.142Z,18.80
2022-08-15T01:16:34.675Z,19.20
2022-08-15T01:19:13.106Z,18.90
2022-08-15T01:22:06.860Z,19.40
2022-08-15T01:25:15.492Z,19.20
2022-08-15T01:27:46.373Z,19.70
2022-08-15T01:31:00.733Z,19.30
2022-08-15T01:33:11.739Z,19.70
2022-08-15T01:35:42.861Z,19.60
2022-08-15T01:38:38.071Z,19.70
2022-08-15T01:41:26.502Z,19.80
2022-08-15T01:44:31.215Z,19.70
2022-08-15T01:47:12.742Z,21.00
2022-08-15T01:49:58.293Z,21.60
2022-08-15T01:52:59.740Z,22.10
2022-08-15T01:55:32.270Z,22.10
2022-08-15T01:58:07.589Z,22.60
2022-08-15T02:00:42.774Z,22.80
2022-08-15T02:03:12.271Z,23.40
2022-08-15T02:05:54.198Z,22.80
2022-08-15T02:08:35.494Z,22.80
2022-08-15T02:11:16.023Z,22.80
2022-08-15T02:13:55.889Z,23.10
2022-08-15T02:16:26.228Z,23.10
2022-08-15T02:18:55.477Z,23.20
2022-08-15T02:21:36.765Z,23.50
2022-08-15T02:24:20.107Z,23.60
2022-08-15T02:26:51.812Z,24.00
2022-08-15T02:29:24.245Z,23.80
2022-08-15T02:31:53.012Z,24.00
2022-08-15T02:34:21.319Z,24.20
2022-08-15T02:37:12.446Z,24.40
2022-08-15T02:39:45.124Z,25.40
2022-08-15T02:42:13.354Z,26.50
2022-08-15T02:44:43.306Z,26.70
2022-08-15T02:47:15.861Z,26.60
2022-08-15T02:49:53.395Z,26.80
2022-08-15T02:52:21.964Z,27.50
2022-08-15T02:55:01.704Z,28.00
2022-08-15T02:57:33.031Z,29.20
2022-08-15T03:00:24.140Z,28.40
2022-08-15T03:02:58.479Z,28.90
2022-08-15T03:05:30.858Z,29.50
2022-08-15T03:07:58.898Z,29.00
2022-08-15T03:10:29.553Z,29.20
2022-08-15T03:13:01.479Z,29.80
2022-08-15T03:15:40.549Z,33.10
2022-08-15T03:18:09.841Z,36.50
2022-08-15T03:20:40.815Z,39.40
2022-08-15T03:23:13.968Z,40.30
2022-08-15T03:25:49.049Z,41.30
2022-08-15T03:28:27.668Z,43.30
2022-08-15T03:30:58.358Z,44.00
2022-08-15T03:33:54.763Z,44.20
2022-08-15T03:36:20.045Z,46.20
2022-08-15T03:38:56.004Z,48.60
2022-08-15T03:41:26.530Z,49.20
2022-08-15T03:43:54.497Z,49.10
2022-08-15T03:46:24.781Z,49.20
2022-08-15T03:48:57.816Z,51.60
2022-08-15T03:51:30.951Z,54.30
2022-08-15T03:54:02.090Z,56.00
2022-08-15T03:56:32.969Z,56.20
2022-08-15T03:59:03.628Z,57.50
2022-08-15T04:01:36.401Z,56.30
2022-08-15T04:04:06.547Z,57.20
2022-08-15T04:06:46.650Z,56.50
2022-08-15T04:09:17.559Z,55.60
2022-08-15T04:11:55.702Z,55.20
2022-08-15T04:14:32.258Z,56.50
2022-08-15T04:17:12.553Z,56.50
2022-08-15T04:19:48.484Z,57.00
2022-08-15T04:22:37.761Z,55.90
2022-08-15T04:25:18.061Z,57.00
2022-08-15T04:27:52.583Z,58.20
2022-08-15T04:30:23.423Z,57.60
2022-08-15T04:32:59.103Z,58.20
2022-08-15T04:35:30.452Z,59.20
2022-08-15T04:38:00.100Z,59.30
2022-08-15T04:41:16.488Z,59.70
2022-08-15T04:43:20.040Z,58.40
2022-08-15T04:45:47.981Z,56.70
2022-08-15T04:48:20.222Z,56.00
2022-08-15T04:50:50.905Z,55.30
2022-08-15T04:53:30.522Z,55.10
2022-08-15T04:56:00.704Z,54.40
2022-08-15T04:58:42.483Z,54.70
2022-08-15T05:01:18.452Z,53.10
2022-08-15T05:03:55.180Z,52.50
2022-08-15T05:06:31.085Z,53.70
2022-08-15T05:09:01.172Z,52.80
2022-08-15T05:12:00.466Z,53.20
2022-08-15T05:14:36.756Z,54.90
2022-08-15T05:17:08.901Z,53.90
2022-08-15T05:19:40.447Z,53.50
2022-08-15T05:22:08.768Z,53.60
2022-08-15T05:24:36.918Z,52.80
2022-08-15T05:27:06.109Z,51.90
2022-08-15T05:29:39.570Z,50.80
2022-08-15T05:32:11.908Z,50.10
2022-08-15T05:34:49.863Z,50.40
2022-08-15T05:37:21.747Z,50.10
2022-08-15T05:39:50.205Z,50.10
2022-08-15T05:42:35.833Z,50.40
2022-08-15T05:45:12.711Z,50.30
2022-08-15T05:48:04.773Z,49.50
2022-08-15T05:50:59.687Z,49.40
2022-08-15T05:53:33.390Z,49.10
2022-08-15T05:56:07.080Z,49.00
2022-08-15T05:58:45.547Z,49.60
2022-08-15T06:01:20.891Z,49.80
2022-08-15T06:03:56.360Z,50.70
2022-08-15T06:06:45.518Z,50.00
2022-08-15T06:09:35.018Z,49.00
2022-08-15T06:12:25.287Z,49.60
2022-08-15T06:14:57.573Z,48.90
2022-08-15T06:17:30.577Z,48.50
2022-08-15T06:20:03.880Z,47.10
2022-08-15T06:23:06.526Z,46.60
2022-08-15T06:25:46.056Z,46.10
2022-08-15T06:28:54.045Z,45.80
2022-08-15T06:31:39.725Z,46.20
2022-08-15T06:34:46.755Z,45.00
2022-08-15T06:37:15.712Z,45.20
2022-08-15T06:40:01.657Z,43.10
2022-08-15T06:42:36.688Z,42.10
2022-08-15T06:45:16.660Z,41.30
2022-08-15T06:47:46.640Z,40.60
2022-08-15T06:50:28.815Z,38.90
2022-08-15T06:53:04.909Z,38.50
2022-08-15T06:55:48.934Z,36.70
2022-08-15T06:58:56.111Z,34.70
2022-08-15T07:02:16.558Z,32.50
2022-08-15T07:04:27.101Z,29.20
2022-08-15T07:07:12.501Z,28.40
2022-08-15T07:09:51.868Z,27.80
2022-08-15T07:12:36.498Z,27.60
2022-08-15T07:15:12.533Z,27.60
2022-08-15T07:17:55.117Z,26.40
2022-08-15T07:20:39.614Z,26.10
2022-08-15T07:23:19.147Z,25.60
2022-08-15T07:25:49.095Z,24.80
2022-08-15T07:28:29.824Z,22.20
2022-08-15T07:31:04.347Z,20.20
2022-08-15T07:33:44.071Z,16.30
2022-08-15T07:36:29.685Z,13.30
2022-08-15T07:38:59.160Z,11.60
2022-08-15T07:41:29.182Z,9.80
2022-08-15T07:44:20.832Z,7.90
2022-08-15T07:46:55.482Z,7.30
2022-08-15T07:49:29.748Z,5.60
2022-08-15T07:52:04.757Z,4.50
2022-08-15T07:54:50.297Z,3.40
2022-08-15T08:00:44.898Z,3.40
2022-08-15T08:03:19.722Z,3.10
2022-08-15T08:05:56.656Z,1.80
2022-08-15T08:08:44.573Z,1.80
2022-08-15T08:11:20.821Z,1.40
2022-08-15T08:14:01.924Z,1.00
2022-08-15T08:16:45.528Z,1.30
2022-08-15T08:19:24.349Z,2.10
2022-08-15T08:21:57.961Z,2.20
2022-08-15T08:24:33.343Z,2.60
2022-08-15T08:27:14.369Z,2.70
2022-08-15T08:29:53.257Z,3.90
2022-08-15T08:32:31.779Z,4.10
2022-08-15T08:35:10.587Z,4.30
2022-08-15T08:37:54.083Z,4.70
2022-08-15T08:40:52.936Z,3.90
2022-08-15T08:43:34.821Z,4.70
2022-08-15T08:46:11.065Z,4.00
2022-08-15T08:49:11.179Z,4.70
2022-08-15T08:51:53.114Z,4.90
2022-08-15T08:54:52.828Z,4.80
2022-08-15T08:57:25.425Z,5.00
2022-08-15T09:00:01.602Z,4.40
2022-08-15T09:02:33.334Z,4.30
2022-08-15T09:05:10.936Z,4.20
2022-08-15T09:07:49.261Z,3.90
2022-08-15T09:10:27.189Z,1.80
2022-08-15T09:13:17.471Z,2.00
2022-08-15T09:15:53.828Z,2.10
2022-08-15T09:18:31.730Z,1.30
2022-08-15T09:21:01.974Z,1.00
2022-08-15T09:23:39.482Z,1.00
2022-08-15T09:26:20.358Z,1.00
2022-08-15T09:29:18.071Z,1.00
2022-08-15T09:32:00.144Z,1.00
2022-08-15T09:34:48.313Z,1.10
2022-08-15T09:37:34.231Z,1.00
2022-08-15T09:41:12.502Z,1.60
2022-08-15T09:44:36.257Z,2.60
2022-08-15T09:47:30.212Z,2.00
2022-08-15T09:50:33.097Z,2.80
2022-08-15T09:53:24.083Z,3.60
2022-08-15T09:55:54.117Z,3.50
2022-08-15T09:58:25.527Z,2.30
2022-08-15T10:01:04.510Z,2.00
2022-08-15T10:04:03.161Z,1.40
2022-08-15T10:06:39.381Z,1.00
2022-08-15T10:09:34.091Z,1.10
2022-08-15T10:12:33.207Z,1.00
2022-08-15T10:15:27.169Z,1.00
2022-08-15T10:17:57.547Z,1.00
2022-08-15T10:20:49.800Z,1.00
2022-08-15T10:23:18.315Z,1.00
2022-08-15T10:25:50.115Z,1.00
2022-08-15T10:28:35.133Z,1.00
2022-08-15T10:31:52.690Z,1.00
2022-08-15T10:34:21.545Z,1.00
2022-08-15T10:37:10.569Z,1.00
2022-08-15T10:39:51.971Z,1.00
2022-08-15T10:42:31.350Z,1.00
2022-08-15T10:45:14.817Z,1.00
2022-08-15T10:48:02.324Z,1.00
2022-08-15T10:50:52.442Z,1.00
2022-08-15T10:53:32.480Z,1.00
2022-08-15T10:57:05.891Z,1.00
2022-08-15T10:59:17.984Z,1.00
2022-08-15T11:01:49.356Z,1.00
2022-08-15T11:04:50.418Z,1.00
2022-08-15T11:07:23.168Z,1.00
2022-08-15T11:09:57.146Z,1.00
2022-08-15T11:12:28.865Z,1.00
2022-08-15T11:15:22.666Z,1.00
2022-08-15T11:18:21.805Z,1.00
2022-08-15T11:20:53.438Z,1.20
2022-08-15T11:23:33.805Z,1.00
2022-08-15T11:26:01.921Z,1.30
2022-08-15T11:28:54.998Z,1.00
2022-08-15T11:31:21.706Z,1.00
2022-08-15T11:33:55.589Z,1.00
2022-08-15T11:36:29.622Z,1.00
2022-08-15T11:39:15.592Z,1.00
2022-08-15T11:41:50.299Z,1.00
2022-08-15T11:44:23.099Z,1.00
2022-08-15T11:46:53.224Z,1.00
2022-08-15T11:49:35.521Z,1.00
2022-08-15T11:52:40.611Z,1.00
2022-08-15T11:55:14.866Z,1.00
2022-08-15T11:57:54.954Z,1.00
2022-08-15T12:00:29.549Z,1.00
2022-08-15T12:06:07.984Z,1.00
2022-08-15T12:08:36.174Z,1.00
2022-08-15T12:11:07.875Z,1.00
2022-08-15T12:13:10.413Z,1.00
2022-08-15T12:13:41.936Z,1.00
2022-08-15T12:16:30.071Z,1.00
2022-08-15T12:19:06.290Z,1.00
2022-08-15T12:21:57.819Z,1.00
2022-08-15T12:24:47.560Z,1.00
2022-08-15T12:27:16.234Z,1.00
2022-08-15T12:29:46.393Z,1.00
2022-08-15T12:32:36.821Z,1.00
2022-08-15T12:35:24.736Z,1.00
2022-08-15T12:37:57.666Z,1.00
2022-08-15T12:40:53.886Z,1.00
2022-08-15T12:43:17.484Z,1.00
2022-08-15T12:45:50.933Z,1.00
2022-08-15T12:48:27.150Z,1.00
2022-08-15T12:51:08.463Z,1.00
2022-08-15T12:53:39.778Z,1.00
2022-08-15T12:56:30.117Z,1.00
2022-08-15T12:59:02.796Z,1.60
2022-08-15T13:01:37.079Z,1.30
2022-08-15T13:04:53.691Z,1.60
2022-08-15T13:07:14.017Z,1.40
2022-08-15T13:09:45.342Z,2.00
2022-08-15T13:12:16.621Z,2.40
2022-08-15T13:14:47.919Z,3.00
2022-08-15T13:17:56.534Z,2.40
2022-08-15T13:20:25.268Z,2.50
2022-08-15T13:23:15.561Z,2.90
2022-08-15T13:25:47.361Z,2.20
2022-08-15T13:28:15.831Z,3.70
2022-08-15T13:31:01.338Z,3.20
2022-08-15T13:33:30.302Z,3.10
2022-08-15T13:35:59.713Z,4.20
2022-08-15T13:38:32.438Z,4.30
2022-08-15T13:41:04.337Z,8.20
2022-08-15T13:43:56.646Z,8.50
2022-08-15T13:46:29.492Z,10.00
2022-08-15T13:49:05.347Z,12.00
2022-08-15T13:52:24.699Z,11.70
2022-08-15T13:54:49.536Z,11.30
2022-08-15T13:57:24.841Z,11.70
2022-08-15T13:59:56.889Z,15.20
2022-08-15T14:02:36.270Z,17.90
2022-08-15T14:05:07.012Z,21.70
2022-08-15T14:08:26.985Z,24.20
2022-08-15T14:11:00.340Z,25.00
2022-08-15T14:13:17.989Z,29.30
2022-08-15T14:16:09.047Z,31.30
2022-08-15T14:18:49.592Z,31.40
2022-08-15T14:21:26.227Z,35.00
2022-08-15T14:23:58.274Z,35.30
2022-08-15T14:27:02.983Z,28.80
2022-08-15T14:29:33.712Z,44.60
2022-08-15T14:35:10.427Z,48.30
2022-08-15T14:37:47.614Z,44.70
2022-08-15T14:40:19.327Z,45.70
2022-08-15T14:42:58.046Z,45.10
2022-08-15T14:46:35.198Z,43.40
2022-08-15T14:48:32.010Z,44.70
2022-08-15T14:51:56.912Z,46.30
2022-08-15T14:53:55.290Z,46.30
2022-08-15T14:56:25.904Z,46.20
2022-08-15T14:59:05.064Z,47.40
2022-08-15T15:01:34.161Z,46.30
2022-08-15T15:04:06.538Z,47.00
2022-08-15T15:06:39.524Z,47.50
2022-08-15T15:09:14.884Z,47.90
2022-08-15T15:11:52.703Z,49.80
2022-08-15T15:14:25.065Z,50.50
2022-08-15T15:16:56.661Z,55.50
2022-08-15T15:19:38.746Z,55.60
2022-08-15T15:22:10.382Z,55.70
2022-08-15T15:24:47.989Z,56.50
2022-08-15T15:27:20.262Z,57.90
2022-08-15T15:29:56.750Z,60.30
2022-08-15T15:32:30.837Z,60.80
2022-08-15T15:35:03.965Z,60.90
2022-08-15T15:37:33.206Z,58.30
2022-08-15T15:40:01.722Z,55.80
2022-08-15T15:42:32.134Z,57.20
2022-08-15T15:45:05.721Z,57.70
2022-08-15T15:47:38.655Z,57.80
2022-08-15T15:50:30.163Z,55.90
2022-08-15T15:53:02.498Z,55.70
2022-08-15T15:55:31.602Z,57.70
2022-08-15T15:58:04.885Z,58.40
2022-08-15T16:00:51.296Z,57.00
2022-08-15T16:03:23.162Z,55.20
2022-08-15T16:06:58.602Z,55.60
2022-08-15T16:08:47.447Z,55.70
2022-08-15T16:11:42.297Z,56.60
2022-08-15T16:14:19.527Z,54.80
2022-08-15T16:17:03.950Z,56.70
2022-08-15T16:19:40.578Z,55.40
2022-08-15T16:22:19.982Z,56.40
2022-08-15T16:24:53.824Z,52.00
2022-08-15T16:27:26.015Z,52.90
2022-08-15T16:29:59.911Z,55.00
2022-08-15T16:32:36.101Z,55.20
2022-08-15T16:35:10.986Z,51.60
2022-08-15T16:37:44.377Z,48.30
2022-08-15T16:40:23.481Z,49.50
2022-08-15T16:42:59.952Z,48.10
2022-08-15T16:45:37.809Z,47.20
2022-08-15T16:48:19.685Z,53.80
2022-08-15T16:50:55.263Z,54.70
2022-08-15T16:53:35.503Z,51.50
2022-08-15T16:56:34.084Z,50.80
2022-08-15T16:59:13.546Z,51.90
2022-08-15T17:01:50.395Z,50.60
2022-08-15T17:04:38.374Z,49.30
2022-08-15T17:07:16.832Z,49.60
2022-08-15T17:09:58.387Z,49.30
2022-08-15T17:12:54.744Z,49.40
2022-08-15T17:15:32.777Z,47.00
2022-08-15T17:18:12.493Z,47.90
2022-08-15T17:20:47.707Z,49.20
2022-08-15T17:23:21.642Z,47.00
2022-08-15T17:26:00.917Z,44.90
2022-08-15T17:28:51.529Z,44.20
2022-08-15T17:31:23.227Z,44.00
2022-08-15T17:33:56.567Z,42.90
2022-08-15T17:36:26.865Z,42.60
2022-08-15T17:39:02.302Z,40.70
2022-08-15T17:41:36.155Z,40.70
2022-08-15T17:44:15.742Z,40.20
2022-08-15T17:47:02.699Z,40.10
2022-08-15T17:49:34.737Z,42.90
2022-08-15T17:52:09.486Z,42.00
2022-08-15T17:54:52.642Z,42.40
2022-08-15T17:57:25.157Z,39.60
2022-08-15T18:00:22.305Z,40.00
2022-08-15T18:03:27.340Z,39.80
2022-08-15T18:06:00.577Z,39.70
2022-08-15T18:08:38.332Z,39.30
2022-08-15T18:11:06.795Z,38.80
2022-08-15T18:13:39.690Z,39.50
2022-08-15T18:16:26.016Z,40.20
2022-08-15T18:19:09.782Z,40.80
2022-08-15T18:21:55.074Z,40.90
2022-08-15T18:24:57.535Z,41.60
2022-08-15T18:27:53.984Z,41.20
2022-08-15T18:30:40.607Z,40.40
2022-08-15T18:33:27.155Z,42.20
2022-08-15T18:36:33.424Z,41.90
2022-08-15T18:39:21.998Z,42.60
2022-08-15T18:41:53.708Z,43.10
2022-08-15T18:44:26.583Z,44.20
2022-08-15T18:47:04.473Z,44.00
2022-08-15T18:49:37.073Z,44.30
2022-08-15T18:52:28.016Z,44.50
2022-08-15T18:55:01.260Z,45.30
2022-08-15T18:57:45.311Z,47.20
2022-08-15T19:00:32.699Z,48.00
2022-08-15T19:03:04.171Z,50.40
2022-08-15T19:05:35.762Z,52.50
2022-08-15T19:08:38.129Z,54.70
2022-08-15T19:11:16.643Z,57.60
2022-08-15T19:13:58.465Z,57.80
2022-08-15T19:16:41.071Z,59.30
2022-08-15T19:19:20.726Z,60.10
2022-08-15T19:21:54.673Z,61.80
2022-08-15T19:24:26.936Z,63.00
2022-08-15T19:27:13.539Z,63.90
2022-08-15T19:30:05.873Z,64.30
2022-08-15T19:32:47.055Z,64.00
2022-08-15T19:35:20.868Z,64.30
2022-08-15T19:38:13.946Z,65.50
2022-08-15T19:40:54.013Z,65.90
2022-08-15T19:43:33.139Z,67.30
2022-08-15T19:46:14.357Z,68.80
2022-08-15T19:49:34.211Z,69.20
2022-08-15T19:52:10.329Z,68.60
2022-08-15T19:55:39.620Z,69.20
2022-08-15T19:58:07.853Z,70.40
2022-08-15T20:00:51.370Z,71.30
2022-08-15T20:03:33.095Z,71.30
2022-08-15T20:06:08.649Z,72.70
2022-08-15T20:08:44.506Z,73.10
2022-08-15T20:11:27.862Z,73.80
2022-08-15T20:14:46.958Z,75.20
2022-08-15T20:17:16.682Z,75.60
2022-08-15T20:20:16.730Z,74.80
2022-08-15T20:23:11.723Z,74.40
2022-08-15T20:25:47.926Z,73.90
2022-08-15T20:28:36.775Z,74.30
2022-08-15T20:31:15.712Z,74.80
2022-08-15T20:33:54.156Z,75.30
2022-08-15T20:36:30.076Z,76.20
2022-08-15T20:39:02.288Z,77.10
2022-08-15T20:41:33.968Z,76.70
2022-08-15T20:44:31.485Z,76.60
2022-08-15T20:47:03.331Z,76.90
2022-08-15T20:49:35.789Z,76.80
2022-08-15T20:52:41.638Z,76.30
2022-08-15T20:54:57.031Z,76.50
2022-08-15T20:57:31.474Z,76.70
2022-08-15T21:01:08.023Z,76.10
2022-08-15T21:03:12.603Z,77.30
2022-08-15T21:06:18.182Z,77.50
2022-08-15T21:09:12.772Z,77.30
2022-08-15T21:11:57.582Z,77.10
2022-08-15T21:15:08.962Z,77.30
2022-08-15T21:17:42.688Z,78.50
2022-08-15T21:20:21.645Z,79.90
2022-08-15T21:23:01.654Z,79.90
2022-08-15T21:25:45.589Z,80.00
2022-08-15T21:28:32.238Z,79.30
2022-08-15T21:31:37.848Z,78.90
2022-08-15T21:34:32.712Z,78.40
2022-08-15T21:37:53.177Z,78.70
2022-08-15T21:40:54.346Z,79.00
2022-08-15T21:44:00.980Z,80.10
2022-08-15T21:46:50.666Z,81.40
2022-08-15T21:49:58.193Z,81.70
2022-08-15T21:52:47.725Z,82.90
2022-08-15T21:55:51.994Z,84.20
2022-08-15T21:59:00.598Z,83.30
2022-08-15T22:01:58.317Z,83.40
2022-08-15T22:04:35.831Z,84.30
2022-08-15T22:07:06.369Z,84.70
2022-08-15T22:09:41.103Z,84.70
2022-08-15T22:12:23.290Z,84.40
2022-08-15T22:14:51.879Z,83.70
2022-08-15T22:17:25.100Z,83.30
2022-08-15T22:19:57.886Z,83.00
2022-08-15T22:22:29.018Z,83.20
2022-08-15T22:25:04.299Z,83.40
2022-08-15T22:27:37.713Z,83.80
2022-08-15T22:30:09.915Z,83.50
2022-08-15T22:32:44.382Z,84.20
2022-08-15T22:35:16.962Z,84.50
2022-08-15T22:37:47.722Z,84.30
2022-08-15T22:40:19.696Z,84.50
2022-08-15T22:42:52.478Z,84.00
2022-08-15T22:45:36.307Z,83.40
2022-08-15T22:48:20.221Z,83.60
2022-08-15T22:50:57.005Z,82.90
2022-08-15T22:53:32.598Z,83.50
2022-08-15T22:56:46.309Z,83.70
2022-08-15T22:58:53.523Z,84.50
2022-08-15T23:01:27.663Z,86.70
2022-08-15T23:04:05.089Z,87.40
2022-08-15T23:06:45.949Z,86.70
2022-08-15T23:09:19.946Z,87.30
2022-08-15T23:11:50.322Z,89.80
2022-08-15T23:14:29.066Z,90.60
2022-08-15T23:17:07.325Z,89.60
2022-08-15T23:19:41.934Z,87.40
2022-08-15T23:22:32.950Z,86.50
2022-08-15T23:25:02.133Z,85.70
2022-08-15T23:27:35.389Z,84.60
2022-08-15T23:30:44.611Z,84.50
2022-08-15T23:33:00.896Z,85.40
2022-08-15T23:35:34.515Z,86.40
2022-08-15T23:38:10.007Z,86.70
2022-08-15T23:40:48.736Z,86.70
2022-08-15T23:43:17.405Z,86.30
2022-08-15T23:45:45.842Z,87.00
2022-08-15T23:48:28.737Z,87.00
2022-08-15T23:51:04.019Z,87.00
2022-08-15T23:53:36.106Z,87.80
2022-08-15T23:56:35.718Z,88.40
2022-08-15T23:58:56.536Z,88.40
